sensor_id;sensor_type;location;lat;lon;timestamp;pressure;altitude;pressure_sealevel;temperature;humidity
13553;BME280;6847;48.830;9.116;2023-04-27T00:00:53;98010.50;;;12.42;45.96
13553;BME280;6847;48.830;9.116;2023-04-27T00:03:25;97968.38;;;12.16;46.43
13553;BME280;6847;48.830;9.116;2023-04-27T00:05:52;98002.09;;;12.39;46.58
13553;BME280;6847;48.830;9.116;2023-04-27T00:08:19;97749.34;;;10.77;46.19
13553;BME280;6847;48.830;9.116;2023-04-27T00:10:45;97997.75;;;12.38;46.04
13553;BME280;6847;48.830;9.116;2023-04-27T00:13:12;97999.66;;;12.37;46.42
13553;BME280;6847;48.830;9.116;2023-04-27T00:15:38;97882.78;;;11.66;46.06
13553;BME280;6847;48.830;9.116;2023-04-27T00:18:05;98002.38;;;12.37;46.73
13553;BME280;6847;48.830;9.116;2023-04-27T00:20:47;97996.94;;;12.37;46.25
13553;BME280;6847;48.830;9.116;2023-04-27T00:23:16;97986.47;;;12.26;46.77
13553;BME280;6847;48.830;9.116;2023-04-27T00:25:43;97968.34;;;12.21;47.01
13553;BME280;6847;48.830;9.116;2023-04-27T00:28:10;97989.69;;;12.33;46.74
13553;BME280;6847;48.830;9.116;2023-04-27T00:30:36;97947.00;;;12.09;47.18
13553;BME280;6847;48.830;9.116;2023-04-27T00:33:03;97990.78;;;12.32;47.13
13553;BME280;6847;48.830;9.116;2023-04-27T00:35:31;97980.19;;;12.30;47.09
13553;BME280;6847;48.830;9.116;2023-04-27T00:38:02;97944.38;;;11.99;46.74
13553;BME280;6847;48.830;9.116;2023-04-27T00:40:31;97977.50;;;12.25;46.91
13553;BME280;6847;48.830;9.116;2023-04-27T00:42:58;97979.94;;;12.27;47.13
13553;BME280;6847;48.830;9.116;2023-04-27T00:45:25;97957.00;;;12.14;47.53
13553;BME280;6847;48.830;9.116;2023-04-27T00:47:53;97961.56;;;12.18;47.33
13553;BME280;6847;48.830;9.116;2023-04-27T00:50:26;97849.03;;;11.48;47.26
13553;BME280;6847;48.830;9.116;2023-04-27T00:52:54;97973.13;;;12.29;47.70
13553;BME280;6847;48.830;9.116;2023-04-27T00:55:22;97957.78;;;12.14;47.60
13553;BME280;6847;48.830;9.116;2023-04-27T00:57:51;97749.56;;;10.81;48.18
13553;BME280;6847;48.830;9.116;2023-04-27T01:00:18;97697.25;;;10.56;47.36
13553;BME280;6847;48.830;9.116;2023-04-27T01:02:45;97944.91;;;12.01;47.84
13553;BME280;6847;48.830;9.116;2023-04-27T01:05:13;97944.66;;;11.98;47.89
13553;BME280;6847;48.830;9.116;2023-04-27T01:07:40;97973.50;;;12.17;47.61
13553;BME280;6847;48.830;9.116;2023-04-27T01:10:07;97983.84;;;12.15;48.13
13553;BME280;6847;48.830;9.116;2023-04-27T01:12:39;97972.47;;;12.13;47.97
13553;BME280;6847;48.830;9.116;2023-04-27T01:15:08;97952.03;;;11.92;47.35
13553;BME280;6847;48.830;9.116;2023-04-27T01:17:35;97974.19;;;12.04;48.11
13553;BME280;6847;48.830;9.116;2023-04-27T01:20:06;97915.91;;;11.63;48.31
13553;BME280;6847;48.830;9.116;2023-04-27T01:22:35;97980.47;;;12.00;48.43
13553;BME280;6847;48.830;9.116;2023-04-27T01:25:04;97981.81;;;11.97;48.45
13553;BME280;6847;48.830;9.116;2023-04-27T01:27:32;97981.28;;;11.95;47.96
13553;BME280;6847;48.830;9.116;2023-04-27T01:29:59;97980.78;;;11.93;48.64
13553;BME280;6847;48.830;9.116;2023-04-27T01:32:25;97939.72;;;11.66;48.12
13553;BME280;6847;48.830;9.116;2023-04-27T01:34:52;97979.44;;;11.91;48.74
13553;BME280;6847;48.830;9.116;2023-04-27T01:37:19;97979.72;;;11.89;49.00
13553;BME280;6847;48.830;9.116;2023-04-27T01:39:45;97977.56;;;11.86;47.76
13553;BME280;6847;48.830;9.116;2023-04-27T01:42:14;97737.69;;;10.37;47.79
13553;BME280;6847;48.830;9.116;2023-04-27T01:44:41;97971.94;;;11.77;48.37
13553;BME280;6847;48.830;9.116;2023-04-27T01:47:07;97977.38;;;11.72;48.49
13553;BME280;6847;48.830;9.116;2023-04-27T01:49:34;97970.63;;;11.70;48.62
13553;BME280;6847;48.830;9.116;2023-04-27T01:52:01;97953.13;;;11.52;48.47
13553;BME280;6847;48.830;9.116;2023-04-27T01:54:27;97975.56;;;11.63;48.39
13553;BME280;6847;48.830;9.116;2023-04-27T01:56:54;97980.44;;;11.61;48.71
13553;BME280;6847;48.830;9.116;2023-04-27T01:59:24;97979.34;;;11.62;49.09
13553;BME280;6847;48.830;9.116;2023-04-27T02:01:50;97961.53;;;11.50;48.46
13553;BME280;6847;48.830;9.116;2023-04-27T02:04:17;97986.41;;;11.63;48.72
13553;BME280;6847;48.830;9.116;2023-04-27T02:06:48;97982.59;;;11.64;49.14
13553;BME280;6847;48.830;9.116;2023-04-27T02:09:15;97991.81;;;11.63;48.71
13553;BME280;6847;48.830;9.116;2023-04-27T02:11:42;97995.63;;;11.62;48.53
13553;BME280;6847;48.830;9.116;2023-04-27T02:14:09;97995.63;;;11.62;48.89
13553;BME280;6847;48.830;9.116;2023-04-27T02:16:39;97992.63;;;11.63;48.46
13553;BME280;6847;48.830;9.116;2023-04-27T02:19:07;97994.00;;;11.61;48.89
13553;BME280;6847;48.830;9.116;2023-04-27T02:21:34;97994.00;;;11.61;49.23
13553;BME280;6847;48.830;9.116;2023-04-27T02:24:01;97942.13;;;11.33;49.27
13553;BME280;6847;48.830;9.116;2023-04-27T02:26:28;97875.72;;;10.92;49.44
13553;BME280;6847;48.830;9.116;2023-04-27T02:28:55;97713.84;;;9.85;48.95
13553;BME280;6847;48.830;9.116;2023-04-27T02:31:27;97816.94;;;10.43;48.98
13553;BME280;6847;48.830;9.116;2023-04-27T02:34:03;97821.50;;;10.53;49.26
13553;BME280;6847;48.830;9.116;2023-04-27T02:36:30;97885.16;;;10.99;49.38
13553;BME280;6847;48.830;9.116;2023-04-27T02:38:56;97811.22;;;10.50;49.16
13553;BME280;6847;48.830;9.116;2023-04-27T02:41:24;97816.34;;;10.51;48.82
13553;BME280;6847;48.830;9.116;2023-04-27T02:43:52;97757.53;;;10.18;49.16
13553;BME280;6847;48.830;9.116;2023-04-27T02:46:19;97898.91;;;11.08;49.82
13553;BME280;6847;48.830;9.116;2023-04-27T02:48:47;97897.81;;;11.09;49.07
13553;BME280;6847;48.830;9.116;2023-04-27T02:51:15;97974.00;;;11.52;49.71
13553;BME280;6847;48.830;9.116;2023-04-27T02:53:42;97940.53;;;11.27;49.47
13553;BME280;6847;48.830;9.116;2023-04-27T02:56:09;97834.72;;;10.59;49.69
13553;BME280;6847;48.830;9.116;2023-04-27T02:58:36;98005.34;;;11.68;49.65
13553;BME280;6847;48.830;9.116;2023-04-27T03:01:02;98014.56;;;11.67;49.90
13553;BME280;6847;48.830;9.116;2023-04-27T03:03:29;98010.75;;;11.68;50.14
13553;BME280;6847;48.830;9.116;2023-04-27T03:05:59;98010.22;;;11.71;49.68
13553;BME280;6847;48.830;9.116;2023-04-27T03:08:27;97904.38;;;11.03;49.76
13553;BME280;6847;48.830;9.116;2023-04-27T03:11:02;98003.19;;;11.75;49.79
13553;BME280;6847;48.830;9.116;2023-04-27T03:13:28;97827.66;;;10.63;50.25
13553;BME280;6847;48.830;9.116;2023-04-27T03:15:55;97887.31;;;11.02;50.03
13553;BME280;6847;48.830;9.116;2023-04-27T03:18:27;98006.66;;;11.75;49.94
13553;BME280;6847;48.830;9.116;2023-04-27T03:20:53;98008.28;;;11.76;50.11
13553;BME280;6847;48.830;9.116;2023-04-27T03:23:31;98008.28;;;11.76;49.51
13553;BME280;6847;48.830;9.116;2023-04-27T03:25:57;97845.50;;;10.74;49.73
13553;BME280;6847;48.830;9.116;2023-04-27T03:28:24;98007.47;;;11.76;49.39
13553;BME280;6847;48.830;9.116;2023-04-27T03:30:55;97834.97;;;10.63;49.63
13553;BME280;6847;48.830;9.116;2023-04-27T03:33:22;97876.53;;;10.92;49.79
13553;BME280;6847;48.830;9.116;2023-04-27T03:35:53;97945.88;;;11.37;50.19
13553;BME280;6847;48.830;9.116;2023-04-27T03:38:20;98002.59;;;11.73;50.75
13553;BME280;6847;48.830;9.116;2023-04-27T03:40:49;98008.03;;;11.73;49.64
13553;BME280;6847;48.830;9.116;2023-04-27T03:43:19;97984.28;;;11.55;50.13
13553;BME280;6847;48.830;9.116;2023-04-27T03:45:50;98011.84;;;11.72;50.31
13553;BME280;6847;48.830;9.116;2023-04-27T03:48:19;98008.31;;;11.71;49.68
13553;BME280;6847;48.830;9.116;2023-04-27T03:50:46;97964.84;;;11.42;50.11
13553;BME280;6847;48.830;9.116;2023-04-27T03:53:17;98000.50;;;11.60;50.48
13553;BME280;6847;48.830;9.116;2023-04-27T03:55:44;98008.59;;;11.70;49.97
13553;BME280;6847;48.830;9.116;2023-04-27T03:58:13;97980.56;;;11.45;50.89
13553;BME280;6847;48.830;9.116;2023-04-27T04:00:41;98018.63;;;11.69;50.67
13553;BME280;6847;48.830;9.116;2023-04-27T04:03:11;98012.38;;;11.69;50.69
13553;BME280;6847;48.830;9.116;2023-04-27T04:05:38;98016.44;;;11.71;50.72
13553;BME280;6847;48.830;9.116;2023-04-27T04:08:06;98015.63;;;11.71;50.71
13553;BME280;6847;48.830;9.116;2023-04-27T04:10:34;98016.44;;;11.71;50.10
13553;BME280;6847;48.830;9.116;2023-04-27T04:13:01;98016.16;;;11.73;51.20
13553;BME280;6847;48.830;9.116;2023-04-27T04:15:33;98010.75;;;11.73;50.51
13553;BME280;6847;48.830;9.116;2023-04-27T04:18:00;98013.47;;;11.73;50.83
13553;BME280;6847;48.830;9.116;2023-04-27T04:20:26;98016.16;;;11.73;50.46
13553;BME280;6847;48.830;9.116;2023-04-27T04:22:53;98015.09;;;11.69;50.17
13553;BME280;6847;48.830;9.116;2023-04-27T04:25:20;98012.38;;;11.69;51.34
13553;BME280;6847;48.830;9.116;2023-04-27T04:27:48;98009.19;;;11.57;51.49
13553;BME280;6847;48.830;9.116;2023-04-27T04:30:15;98030.56;;;11.68;51.11
13553;BME280;6847;48.830;9.116;2023-04-27T04:32:46;98033.00;;;11.70;50.70
13553;BME280;6847;48.830;9.116;2023-04-27T04:35:13;98034.09;;;11.69;51.14
13553;BME280;6847;48.830;9.116;2023-04-27T04:37:43;98032.19;;;11.69;51.18
13553;BME280;6847;48.830;9.116;2023-04-27T04:40:11;98027.28;;;11.71;51.18
13553;BME280;6847;48.830;9.116;2023-04-27T04:42:38;98022.69;;;11.72;51.69
13553;BME280;6847;48.830;9.116;2023-04-27T04:45:06;98011.34;;;11.65;50.97
13553;BME280;6847;48.830;9.116;2023-04-27T04:47:34;97995.13;;;11.55;51.16
13553;BME280;6847;48.830;9.116;2023-04-27T04:50:03;98025.63;;;11.80;51.41
13553;BME280;6847;48.830;9.116;2023-04-27T04:52:31;98003.16;;;11.70;51.43
13553;BME280;6847;48.830;9.116;2023-04-27T04:54:58;98002.88;;;11.76;51.09
13553;BME280;6847;48.830;9.116;2023-04-27T04:57:26;98026.38;;;11.91;50.62
13553;BME280;6847;48.830;9.116;2023-04-27T04:59:55;97847.31;;;10.84;51.22
13553;BME280;6847;48.830;9.116;2023-04-27T05:02:26;98023.91;;;11.95;51.28
13553;BME280;6847;48.830;9.116;2023-04-27T05:08:04;98018.19;;;11.96;51.15
13553;BME280;6847;48.830;9.116;2023-04-27T05:10:32;97961.47;;;11.61;51.20
13553;BME280;6847;48.830;9.116;2023-04-27T05:12:59;98037.00;;;12.21;51.24
13553;BME280;6847;48.830;9.116;2023-04-27T05:15:26;97874.38;;;11.33;50.96
13553;BME280;6847;48.830;9.116;2023-04-27T05:17:57;98026.06;;;12.32;51.41
13553;BME280;6847;48.830;9.116;2023-04-27T05:20:26;97862.47;;;11.29;51.12
13553;BME280;6847;48.830;9.116;2023-04-27T05:22:53;98037.31;;;12.49;51.33
13553;BME280;6847;48.830;9.116;2023-04-27T05:25:21;98037.75;;;12.56;50.85
13553;BME280;6847;48.830;9.116;2023-04-27T05:27:49;98029.00;;;12.64;51.03
13553;BME280;6847;48.830;9.116;2023-04-27T05:30:18;98014.41;;;12.55;51.27
13553;BME280;6847;48.830;9.116;2023-04-27T05:32:44;98038.63;;;12.80;51.29
13553;BME280;6847;48.830;9.116;2023-04-27T05:35:11;98033.75;;;12.77;51.47
13553;BME280;6847;48.830;9.116;2023-04-27T05:37:38;98045.47;;;13.02;51.14
13553;BME280;6847;48.830;9.116;2023-04-27T05:40:10;98047.50;;;13.15;51.21
13553;BME280;6847;48.830;9.116;2023-04-27T05:42:39;98052.81;;;13.25;50.48
13553;BME280;6847;48.830;9.116;2023-04-27T05:45:07;98047.53;;;13.33;50.62
13553;BME280;6847;48.830;9.116;2023-04-27T05:47:33;98046.09;;;13.41;50.34
13553;BME280;6847;48.830;9.116;2023-04-27T05:50:03;97998.28;;;13.16;50.58
13553;BME280;6847;48.830;9.116;2023-04-27T05:52:32;98045.91;;;13.56;50.87
13553;BME280;6847;48.830;9.116;2023-04-27T05:55:01;98038.47;;;13.62;50.28
13553;BME280;6847;48.830;9.116;2023-04-27T05:57:32;98055.91;;;13.80;50.79
13553;BME280;6847;48.830;9.116;2023-04-27T06:00:03;98069.28;;;13.95;50.52
13553;BME280;6847;48.830;9.116;2023-04-27T06:02:41;98068.56;;;14.08;50.55
13553;BME280;6847;48.830;9.116;2023-04-27T06:05:12;98056.47;;;14.14;50.57
13553;BME280;6847;48.830;9.116;2023-04-27T06:07:39;98066.25;;;14.34;50.08
13553;BME280;6847;48.830;9.116;2023-04-27T06:10:09;98073.69;;;14.47;50.51
13553;BME280;6847;48.830;9.116;2023-04-27T06:12:41;98066.97;;;14.58;50.51
13553;BME280;6847;48.830;9.116;2023-04-27T06:15:10;98067.00;;;14.72;50.48
13553;BME280;6847;48.830;9.116;2023-04-27T06:17:38;98015.28;;;14.53;50.20
13553;BME280;6847;48.830;9.116;2023-04-27T06:20:06;98059.75;;;14.95;50.36
13553;BME280;6847;48.830;9.116;2023-04-27T06:22:34;98045.22;;;14.99;49.82
13553;BME280;6847;48.830;9.116;2023-04-27T06:25:02;98072.53;;;15.27;50.05
13553;BME280;6847;48.830;9.116;2023-04-27T06:27:36;98079.88;;;15.40;49.92
13553;BME280;6847;48.830;9.116;2023-04-27T06:30:03;98081.81;;;15.53;49.77
13553;BME280;6847;48.830;9.116;2023-04-27T06:32:40;98079.78;;;15.59;49.84
13553;BME280;6847;48.830;9.116;2023-04-27T06:35:09;98026.03;;;15.32;49.82
13553;BME280;6847;48.830;9.116;2023-04-27T06:37:40;98079.41;;;15.65;50.00
13553;BME280;6847;48.830;9.116;2023-04-27T06:40:12;97868.81;;;14.31;49.94
13553;BME280;6847;48.830;9.116;2023-04-27T06:42:39;98083.28;;;15.86;49.73
13553;BME280;6847;48.830;9.116;2023-04-27T06:45:20;98038.84;;;15.72;49.77
13553;BME280;6847;48.830;9.116;2023-04-27T06:47:48;98084.50;;;16.16;49.18
13553;BME280;6847;48.830;9.116;2023-04-27T06:50:16;98067.88;;;16.26;49.33
13553;BME280;6847;48.830;9.116;2023-04-27T06:52:44;98046.59;;;16.37;48.88
13553;BME280;6847;48.830;9.116;2023-04-27T06:55:25;97981.66;;;16.12;48.88
13553;BME280;6847;48.830;9.116;2023-04-27T06:58:06;98096.09;;;17.02;48.98
13553;BME280;6847;48.830;9.116;2023-04-27T07:00:34;98095.16;;;17.16;48.76
13553;BME280;6847;48.830;9.116;2023-04-27T07:03:13;97987.06;;;16.56;48.77
13553;BME280;6847;48.830;9.116;2023-04-27T07:05:41;98095.88;;;17.30;48.72
13553;BME280;6847;48.830;9.116;2023-04-27T07:08:18;98064.38;;;17.01;48.85
13553;BME280;6847;48.830;9.116;2023-04-27T07:10:49;97886.84;;;15.81;48.92
13553;BME280;6847;48.830;9.116;2023-04-27T07:13:34;97941.66;;;16.16;48.92
13553;BME280;6847;48.830;9.116;2023-04-27T07:16:14;98019.81;;;16.70;48.96
13553;BME280;6847;48.830;9.116;2023-04-27T07:19:10;98089.44;;;16.95;49.00
13553;BME280;6847;48.830;9.116;2023-04-27T07:21:37;98075.44;;;16.65;49.36
13553;BME280;6847;48.830;9.116;2023-04-27T07:24:04;98097.72;;;16.59;49.40
13553;BME280;6847;48.830;9.116;2023-04-27T07:26:34;98089.22;;;16.60;49.30
13553;BME280;6847;48.830;9.116;2023-04-27T07:29:01;98015.31;;;16.21;49.45
13553;BME280;6847;48.830;9.116;2023-04-27T07:31:29;98090.72;;;16.67;49.17
13553;BME280;6847;48.830;9.116;2023-04-27T07:33:56;98085.75;;;16.69;49.22
13553;BME280;6847;48.830;9.116;2023-04-27T07:36:27;98089.88;;;16.88;49.15
13553;BME280;6847;48.830;9.116;2023-04-27T07:38:57;98090.22;;;17.26;48.43
13553;BME280;6847;48.830;9.116;2023-04-27T07:41:25;98090.66;;;17.51;48.29
13553;BME280;6847;48.830;9.116;2023-04-27T07:43:56;98045.72;;;17.43;47.90
13553;BME280;6847;48.830;9.116;2023-04-27T07:46:23;98096.44;;;18.06;47.74
13553;BME280;6847;48.830;9.116;2023-04-27T07:48:51;98090.31;;;18.52;47.17
13553;BME280;6847;48.830;9.116;2023-04-27T07:51:19;98090.72;;;19.06;46.60
13553;BME280;6847;48.830;9.116;2023-04-27T07:53:47;98056.16;;;19.51;45.98
13553;BME280;6847;48.830;9.116;2023-04-27T07:56:14;98063.28;;;20.23;45.10
13553;BME280;6847;48.830;9.116;2023-04-27T07:58:43;98065.53;;;20.63;44.75
13553;BME280;6847;48.830;9.116;2023-04-27T08:01:11;98000.75;;;21.47;42.93
13553;BME280;6847;48.830;9.116;2023-04-27T08:03:38;98078.75;;;24.37;39.69
13553;BME280;6847;48.830;9.116;2023-04-27T08:06:05;98083.63;;;26.82;37.06
13553;BME280;6847;48.830;9.116;2023-04-27T08:08:31;98101.03;;;28.70;35.90
13553;BME280;6847;48.830;9.116;2023-04-27T08:11:00;98044.69;;;29.69;35.22
13553;BME280;6847;48.830;9.116;2023-04-27T08:13:27;98105.91;;;30.79;35.00
13553;BME280;6847;48.830;9.116;2023-04-27T08:15:56;98100.28;;;30.86;35.29
13553;BME280;6847;48.830;9.116;2023-04-27T08:18:25;98096.56;;;31.07;35.23
13553;BME280;6847;48.830;9.116;2023-04-27T08:20:56;98104.34;;;31.44;35.14
13553;BME280;6847;48.830;9.116;2023-04-27T08:23:25;98055.75;;;31.75;34.77
13553;BME280;6847;48.830;9.116;2023-04-27T08:25:52;98092.53;;;32.59;34.15
13553;BME280;6847;48.830;9.116;2023-04-27T08:28:20;98101.63;;;33.01;34.41
13553;BME280;6847;48.830;9.116;2023-04-27T08:30:47;98093.50;;;33.64;33.76
13553;BME280;6847;48.830;9.116;2023-04-27T08:33:14;98107.06;;;34.39;32.65
13553;BME280;6847;48.830;9.116;2023-04-27T08:35:44;98095.94;;;34.55;32.72
13553;BME280;6847;48.830;9.116;2023-04-27T08:38:11;98091.69;;;34.24;32.81
13553;BME280;6847;48.830;9.116;2023-04-27T08:40:41;98094.75;;;34.09;33.50
13553;BME280;6847;48.830;9.116;2023-04-27T08:43:08;98088.78;;;33.30;33.67
13553;BME280;6847;48.830;9.116;2023-04-27T08:45:36;98089.56;;;33.04;34.13
13553;BME280;6847;48.830;9.116;2023-04-27T08:48:04;98079.16;;;33.01;33.66
13553;BME280;6847;48.830;9.116;2023-04-27T08:50:31;98059.34;;;33.42;33.19
13553;BME280;6847;48.830;9.116;2023-04-27T08:52:58;98080.50;;;34.20;32.03
13553;BME280;6847;48.830;9.116;2023-04-27T08:55:25;98061.97;;;34.66;31.67
13553;BME280;6847;48.830;9.116;2023-04-27T08:57:55;98020.06;;;34.32;31.26
13553;BME280;6847;48.830;9.116;2023-04-27T09:00:26;98081.66;;;32.95;33.21
13553;BME280;6847;48.830;9.116;2023-04-27T09:02:54;98089.47;;;31.54;34.71
13553;BME280;6847;48.830;9.116;2023-04-27T09:05:22;98084.84;;;31.85;33.74
13553;BME280;6847;48.830;9.116;2023-04-27T09:07:57;98052.63;;;32.11;33.01
13553;BME280;6847;48.830;9.116;2023-04-27T09:10:25;98055.06;;;32.43;32.16
13553;BME280;6847;48.830;9.116;2023-04-27T09:12:55;98090.34;;;32.74;31.77
13553;BME280;6847;48.830;9.116;2023-04-27T09:15:22;98084.09;;;32.93;31.11
13553;BME280;6847;48.830;9.116;2023-04-27T09:17:54;97994.75;;;32.61;30.76
13553;BME280;6847;48.830;9.116;2023-04-27T09:20:22;98093.31;;;33.24;30.72
13553;BME280;6847;48.830;9.116;2023-04-27T09:22:51;98003.66;;;32.87;30.59
13553;BME280;6847;48.830;9.116;2023-04-27T09:25:29;98096.22;;;33.94;30.26
13553;BME280;6847;48.830;9.116;2023-04-27T09:27:57;98090.66;;;34.37;29.66
13553;BME280;6847;48.830;9.116;2023-04-27T09:30:25;98061.44;;;34.51;29.37
13553;BME280;6847;48.830;9.116;2023-04-27T09:32:55;98097.44;;;34.79;29.04
13553;BME280;6847;48.830;9.116;2023-04-27T09:35:24;97855.75;;;33.37;29.31
13553;BME280;6847;48.830;9.116;2023-04-27T09:37:51;98090.22;;;34.98;28.69
13553;BME280;6847;48.830;9.116;2023-04-27T09:40:18;98076.94;;;34.99;28.34
13553;BME280;6847;48.830;9.116;2023-04-27T09:42:48;98099.13;;;35.33;28.39
13553;BME280;6847;48.830;9.116;2023-04-27T09:45:16;98027.91;;;35.16;27.96
13553;BME280;6847;48.830;9.116;2023-04-27T09:47:43;98008.97;;;35.00;27.71
13553;BME280;6847;48.830;9.116;2023-04-27T09:50:12;98082.16;;;35.16;28.12
13553;BME280;6847;48.830;9.116;2023-04-27T09:52:39;97972.28;;;34.32;28.19
13553;BME280;6847;48.830;9.116;2023-04-27T09:55:08;98059.22;;;35.18;27.86
13553;BME280;6847;48.830;9.116;2023-04-27T09:57:39;98075.56;;;35.43;27.54
13553;BME280;6847;48.830;9.116;2023-04-27T10:00:13;98052.34;;;35.19;27.48
13553;BME280;6847;48.830;9.116;2023-04-27T10:03:02;98053.75;;;35.11;26.94
13553;BME280;6847;48.830;9.116;2023-04-27T10:05:55;98084.09;;;35.55;26.75
13553;BME280;6847;48.830;9.116;2023-04-27T10:08:24;98087.31;;;35.74;26.43
13553;BME280;6847;48.830;9.116;2023-04-27T10:10:52;98067.91;;;35.92;26.17
13553;BME280;6847;48.830;9.116;2023-04-27T10:13:20;98067.63;;;36.48;26.03
13553;BME280;6847;48.830;9.116;2023-04-27T10:15:47;97968.06;;;35.93;25.89
13553;BME280;6847;48.830;9.116;2023-04-27T10:18:24;98078.75;;;36.67;25.71
13553;BME280;6847;48.830;9.116;2023-04-27T10:20:53;98086.41;;;36.67;25.79
13553;BME280;6847;48.830;9.116;2023-04-27T10:23:23;98056.03;;;36.58;25.62
13553;BME280;6847;48.830;9.116;2023-04-27T10:25:50;97983.47;;;36.17;25.33
13553;BME280;6847;48.830;9.116;2023-04-27T10:28:17;98023.13;;;36.68;25.48
13553;BME280;6847;48.830;9.116;2023-04-27T10:30:46;98085.63;;;37.08;25.02
13553;BME280;6847;48.830;9.116;2023-04-27T10:33:15;98058.41;;;37.01;25.04
13553;BME280;6847;48.830;9.116;2023-04-27T10:35:44;98064.28;;;37.07;24.58
13553;BME280;6847;48.830;9.116;2023-04-27T10:38:14;98048.34;;;36.88;25.19
13553;BME280;6847;48.830;9.116;2023-04-27T10:40:43;98066.31;;;37.06;24.61
13553;BME280;6847;48.830;9.116;2023-04-27T10:43:12;98044.84;;;36.96;24.72
13553;BME280;6847;48.830;9.116;2023-04-27T10:46:08;98064.00;;;36.47;25.14
13553;BME280;6847;48.830;9.116;2023-04-27T10:48:38;97982.69;;;35.55;25.71
13553;BME280;6847;48.830;9.116;2023-04-27T10:51:05;98057.88;;;35.42;25.99
13553;BME280;6847;48.830;9.116;2023-04-27T10:53:34;98004.47;;;34.86;25.94
13553;BME280;6847;48.830;9.116;2023-04-27T10:56:01;98040.53;;;34.92;26.06
13553;BME280;6847;48.830;9.116;2023-04-27T10:58:28;98007.78;;;34.81;25.66
13553;BME280;6847;48.830;9.116;2023-04-27T11:00:55;97986.94;;;34.79;25.57
13553;BME280;6847;48.830;9.116;2023-04-27T11:03:22;98062.00;;;35.02;25.64
13553;BME280;6847;48.830;9.116;2023-04-27T11:06:00;98054.88;;;34.38;26.33
13553;BME280;6847;48.830;9.116;2023-04-27T11:08:28;98053.56;;;33.99;26.17
13553;BME280;6847;48.830;9.116;2023-04-27T11:10:58;98048.16;;;33.65;26.64
13553;BME280;6847;48.830;9.116;2023-04-27T11:13:25;98041.00;;;33.61;26.87
13553;BME280;6847;48.830;9.116;2023-04-27T11:15:53;98038.78;;;33.25;26.87
13553;BME280;6847;48.830;9.116;2023-04-27T11:18:22;98051.84;;;33.08;27.17
13553;BME280;6847;48.830;9.116;2023-04-27T11:20:50;98030.06;;;32.59;27.29
13553;BME280;6847;48.830;9.116;2023-04-27T11:23:22;98046.44;;;32.30;27.03
13553;BME280;6847;48.830;9.116;2023-04-27T11:25:49;98048.03;;;32.31;26.84
13553;BME280;6847;48.830;9.116;2023-04-27T11:28:19;98047.38;;;32.50;26.63
13553;BME280;6847;48.830;9.116;2023-04-27T11:30:46;97970.84;;;32.23;26.14
13553;BME280;6847;48.830;9.116;2023-04-27T11:33:13;98026.66;;;32.75;26.13
13553;BME280;6847;48.830;9.116;2023-04-27T11:35:40;98036.34;;;32.66;26.07
13553;BME280;6847;48.830;9.116;2023-04-27T11:38:14;98022.31;;;32.36;26.38
13553;BME280;6847;48.830;9.116;2023-04-27T11:40:42;98032.13;;;32.21;26.67
13553;BME280;6847;48.830;9.116;2023-04-27T11:43:11;98039.91;;;31.54;26.86
13553;BME280;6847;48.830;9.116;2023-04-27T11:45:42;97956.00;;;30.33;27.82
13553;BME280;6847;48.830;9.116;2023-04-27T11:48:12;98017.38;;;30.47;27.97
13553;BME280;6847;48.830;9.116;2023-04-27T11:50:38;98048.47;;;30.64;27.52
13553;BME280;6847;48.830;9.116;2023-04-27T11:53:05;97821.63;;;29.08;27.52
13553;BME280;6847;48.830;9.116;2023-04-27T11:55:34;97956.94;;;29.84;27.57
13553;BME280;6847;48.830;9.116;2023-04-27T11:58:01;98014.38;;;29.81;27.82
13553;BME280;6847;48.830;9.116;2023-04-27T12:00:28;98033.50;;;29.87;27.77
13553;BME280;6847;48.830;9.116;2023-04-27T12:02:56;98021.97;;;29.60;28.39
13553;BME280;6847;48.830;9.116;2023-04-27T12:05:23;97959.00;;;29.05;28.16
13553;BME280;6847;48.830;9.116;2023-04-27T12:07:50;98012.00;;;29.41;28.09
13553;BME280;6847;48.830;9.116;2023-04-27T12:10:20;97970.16;;;28.98;28.45
13553;BME280;6847;48.830;9.116;2023-04-27T12:12:47;98010.41;;;29.26;28.45
13553;BME280;6847;48.830;9.116;2023-04-27T12:15:13;98014.38;;;29.32;28.41
13553;BME280;6847;48.830;9.116;2023-04-27T12:17:42;98008.81;;;29.39;28.77
13553;BME280;6847;48.830;9.116;2023-04-27T12:20:11;98002.44;;;29.60;28.60
13553;BME280;6847;48.830;9.116;2023-04-27T12:22:39;98009.63;;;29.50;28.36
13553;BME280;6847;48.830;9.116;2023-04-27T12:25:06;97992.06;;;29.32;28.35
13553;BME280;6847;48.830;9.116;2023-04-27T12:27:34;98013.53;;;28.99;28.83
13553;BME280;6847;48.830;9.116;2023-04-27T12:30:00;97932.84;;;28.06;29.09
13553;BME280;6847;48.830;9.116;2023-04-27T12:32:29;97943.06;;;27.77;29.21
13553;BME280;6847;48.830;9.116;2023-04-27T12:34:56;97808.81;;;26.60;29.34
13553;BME280;6847;48.830;9.116;2023-04-27T12:37:24;97784.22;;;26.17;29.61
13553;BME280;6847;48.830;9.116;2023-04-27T12:39:50;97995.72;;;28.10;29.13
13553;BME280;6847;48.830;9.116;2023-04-27T12:42:19;97991.13;;;28.50;28.73
13553;BME280;6847;48.830;9.116;2023-04-27T12:44:48;97994.44;;;28.94;28.83
13553;BME280;6847;48.830;9.116;2023-04-27T12:47:15;97997.66;;;29.18;28.37
13553;BME280;6847;48.830;9.116;2023-04-27T12:49:41;97973.75;;;29.34;28.24
13553;BME280;6847;48.830;9.116;2023-04-27T12:52:08;97972.97;;;29.55;28.01
13553;BME280;6847;48.830;9.116;2023-04-27T12:54:36;97986.47;;;29.74;27.98
13553;BME280;6847;48.830;9.116;2023-04-27T12:57:02;97972.13;;;29.58;28.00
13553;BME280;6847;48.830;9.116;2023-04-27T12:59:30;97975.34;;;29.67;28.35
13553;BME280;6847;48.830;9.116;2023-04-27T13:01:59;97984.88;;;29.77;27.88
13553;BME280;6847;48.830;9.116;2023-04-27T13:04:27;97953.78;;;29.68;28.49
13553;BME280;6847;48.830;9.116;2023-04-27T13:06:55;97749.97;;;28.63;27.93
13553;BME280;6847;48.830;9.116;2023-04-27T13:09:26;97964.72;;;30.42;27.44
13553;BME280;6847;48.830;9.116;2023-04-27T13:11:54;97975.75;;;30.71;27.82
13553;BME280;6847;48.830;9.116;2023-04-27T13:14:24;97959.88;;;30.50;27.72
13553;BME280;6847;48.830;9.116;2023-04-27T13:16:52;97947.88;;;30.57;27.44
13553;BME280;6847;48.830;9.116;2023-04-27T13:19:19;97966.75;;;31.04;27.16
13553;BME280;6847;48.830;9.116;2023-04-27T13:21:47;97979.06;;;31.17;27.17